sensor_id;sensor_type;location;lat;lon;timestamp;P1;durP1;ratioP1;P2;durP2;ratioP2
18576;SDS011;9418;52.694;13.294;2024-03-08T00:01:13;24.37;;;16.37;;
18576;SDS011;9418;52.694;13.294;2024-03-08T00:03:41;20.20;;;14.83;;
18576;SDS011;9418;52.694;13.294;2024-03-08T00:06:07;21.83;;;15.03;;
18576;SDS011;9418;52.694;13.294;2024-03-08T00:08:35;23.20;;;16.00;;
18576;SDS011;9418;52.694;13.294;2024-03-08T00:11:02;18.90;;;14.80;;
18576;SDS011;9418;52.694;13.294;2024-03-08T00:13:29;22.53;;;15.67;;
18576;SDS011;9418;52.694;13.294;2024-03-08T00:15:55;17.47;;;14.77;;
18576;SDS011;9418;52.694;13.294;2024-03-08T00:18:23;19.03;;;15.27;;
18576;SDS011;9418;52.694;13.294;2024-03-08T00:20:49;22.57;;;15.10;;
18576;SDS011;9418;52.694;13.294;2024-03-08T00:23:16;20.20;;;15.60;;
18576;SDS011;9418;52.694;13.294;2024-03-08T00:25:44;23.60;;;15.50;;
18576;SDS011;9418;52.694;13.294;2024-03-08T00:28:11;18.73;;;14.80;;
18576;SDS011;9418;52.694;13.294;2024-03-08T00:30:40;19.93;;;15.23;;
18576;SDS011;9418;52.694;13.294;2024-03-08T00:33:05;24.17;;;16.63;;
18576;SDS011;9418;52.694;13.294;2024-03-08T00:35:32;19.60;;;15.67;;
18576;SDS011;9418;52.694;13.294;2024-03-08T00:37:59;19.43;;;15.87;;
18576;SDS011;9418;52.694;13.294;2024-03-08T00:40:26;22.90;;;16.33;;
18576;SDS011;9418;52.694;13.294;2024-03-08T00:42:55;22.07;;;15.83;;
18576;SDS011;9418;52.694;13.294;2024-03-08T00:45:21;20.50;;;15.90;;
18576;SDS011;9418;52.694;13.294;2024-03-08T00:47:48;18.60;;;14.93;;
18576;SDS011;9418;52.694;13.294;2024-03-08T00:50:15;21.63;;;16.10;;
18576;SDS011;9418;52.694;13.294;2024-03-08T00:52:43;20.20;;;15.07;;
18576;SDS011;9418;52.694;13.294;2024-03-08T00:55:09;22.20;;;15.63;;
18576;SDS011;9418;52.694;13.294;2024-03-08T00:57:36;21.03;;;15.70;;
18576;SDS011;9418;52.694;13.294;2024-03-08T01:00:05;20.27;;;15.33;;
18576;SDS011;9418;52.694;13.294;2024-03-08T01:02:36;23.30;;;17.60;;
18576;SDS011;9418;52.694;13.294;2024-03-08T01:05:03;21.60;;;16.83;;
18576;SDS011;9418;52.694;13.294;2024-03-08T01:07:32;26.33;;;17.20;;
18576;SDS011;9418;52.694;13.294;2024-03-08T01:09:59;18.77;;;14.70;;
18576;SDS011;9418;52.694;13.294;2024-03-08T01:12:26;21.57;;;16.60;;
18576;SDS011;9418;52.694;13.294;2024-03-08T01:14:53;20.30;;;16.83;;
18576;SDS011;9418;52.694;13.294;2024-03-08T01:17:21;20.50;;;16.20;;
18576;SDS011;9418;52.694;13.294;2024-03-08T01:19:47;20.53;;;15.63;;
18576;SDS011;9418;52.694;13.294;2024-03-08T01:22:14;21.83;;;17.70;;
18576;SDS011;9418;52.694;13.294;2024-03-08T01:24:40;22.33;;;17.47;;
18576;SDS011;9418;52.694;13.294;2024-03-08T01:27:07;24.13;;;16.90;;
18576;SDS011;9418;52.694;13.294;2024-03-08T01:29:34;21.30;;;16.07;;
18576;SDS011;9418;52.694;13.294;2024-03-08T01:32:01;20.33;;;16.83;;
18576;SDS011;9418;52.694;13.294;2024-03-08T01:34:29;25.27;;;18.03;;
18576;SDS011;9418;52.694;13.294;2024-03-08T01:36:55;22.73;;;16.90;;
18576;SDS011;9418;52.694;13.294;2024-03-08T01:39:22;26.13;;;18.03;;
18576;SDS011;9418;52.694;13.294;2024-03-08T01:41:49;22.20;;;17.53;;
18576;SDS011;9418;52.694;13.294;2024-03-08T01:44:15;22.83;;;18.53;;
18576;SDS011;9418;52.694;13.294;2024-03-08T01:46:43;24.37;;;17.30;;
18576;SDS011;9418;52.694;13.294;2024-03-08T01:49:10;22.23;;;17.73;;
18576;SDS011;9418;52.694;13.294;2024-03-08T01:51:39;21.10;;;16.53;;
18576;SDS011;9418;52.694;13.294;2024-03-08T01:54:07;19.87;;;16.13;;
18576;SDS011;9418;52.694;13.294;2024-03-08T01:56:38;24.73;;;18.17;;
18576;SDS011;9418;52.694;13.294;2024-03-08T01:59:05;22.70;;;16.50;;
18576;SDS011;9418;52.694;13.294;2024-03-08T02:01:32;26.57;;;18.20;;
18576;SDS011;9418;52.694;13.294;2024-03-08T02:04:00;24.40;;;16.83;;
18576;SDS011;9418;52.694;13.294;2024-03-08T02:06:26;23.47;;;16.73;;
18576;SDS011;9418;52.694;13.294;2024-03-08T02:08:54;27.87;;;18.33;;
18576;SDS011;9418;52.694;13.294;2024-03-08T02:11:21;22.00;;;17.27;;
18576;SDS011;9418;52.694;13.294;2024-03-08T02:13:47;25.13;;;17.47;;
18576;SDS011;9418;52.694;13.294;2024-03-08T02:16:19;23.07;;;18.33;;
18576;SDS011;9418;52.694;13.294;2024-03-08T02:18:47;23.73;;;17.80;;
18576;SDS011;9418;52.694;13.294;2024-03-08T02:21:16;26.50;;;18.13;;
18576;SDS011;9418;52.694;13.294;2024-03-08T02:23:43;24.63;;;16.20;;
18576;SDS011;9418;52.694;13.294;2024-03-08T02:26:10;23.30;;;18.53;;
18576;SDS011;9418;52.694;13.294;2024-03-08T02:28:37;26.47;;;18.60;;
18576;SDS011;9418;52.694;13.294;2024-03-08T02:31:04;26.43;;;18.67;;
18576;SDS011;9418;52.694;13.294;2024-03-08T02:33:33;22.17;;;17.60;;
18576;SDS011;9418;52.694;13.294;2024-03-08T02:36:00;23.03;;;18.17;;
18576;SDS011;9418;52.694;13.294;2024-03-08T02:38:28;24.73;;;18.17;;
18576;SDS011;9418;52.694;13.294;2024-03-08T02:40:54;23.47;;;19.10;;
18576;SDS011;9418;52.694;13.294;2024-03-08T02:43:21;22.77;;;17.80;;
18576;SDS011;9418;52.694;13.294;2024-03-08T02:45:49;26.87;;;19.10;;
18576;SDS011;9418;52.694;13.294;2024-03-08T02:48:18;24.20;;;17.80;;
18576;SDS011;9418;52.694;13.294;2024-03-08T02:50:45;23.80;;;18.50;;
18576;SDS011;9418;52.694;13.294;2024-03-08T02:53:12;24.73;;;18.30;;
18576;SDS011;9418;52.694;13.294;2024-03-08T02:55:41;26.57;;;20.07;;
18576;SDS011;9418;52.694;13.294;2024-03-08T02:58:08;26.23;;;18.70;;
18576;SDS011;9418;52.694;13.294;2024-03-08T03:00:35;30.80;;;19.43;;
18576;SDS011;9418;52.694;13.294;2024-03-08T03:03:03;25.20;;;18.83;;
18576;SDS011;9418;52.694;13.294;2024-03-08T03:05:31;28.67;;;20.00;;
18576;SDS011;9418;52.694;13.294;2024-03-08T03:07:58;26.63;;;18.70;;
18576;SDS011;9418;52.694;13.294;2024-03-08T03:10:25;29.90;;;19.50;;
18576;SDS011;9418;52.694;13.294;2024-03-08T03:12:53;22.13;;;17.53;;
18576;SDS011;9418;52.694;13.294;2024-03-08T03:15:20;26.03;;;17.90;;
18576;SDS011;9418;52.694;13.294;2024-03-08T03:17:47;26.10;;;19.90;;
18576;SDS011;9418;52.694;13.294;2024-03-08T03:20:16;29.37;;;19.87;;
18576;SDS011;9418;52.694;13.294;2024-03-08T03:22:48;26.77;;;18.57;;
18576;SDS011;9418;52.694;13.294;2024-03-08T03:25:16;27.43;;;20.10;;
18576;SDS011;9418;52.694;13.294;2024-03-08T03:27:48;25.10;;;19.80;;
18576;SDS011;9418;52.694;13.294;2024-03-08T03:30:16;27.77;;;19.43;;
18576;SDS011;9418;52.694;13.294;2024-03-08T03:32:46;25.60;;;20.03;;
18576;SDS011;9418;52.694;13.294;2024-03-08T03:35:13;36.77;;;20.13;;
18576;SDS011;9418;52.694;13.294;2024-03-08T03:37:41;32.80;;;20.87;;
18576;SDS011;9418;52.694;13.294;2024-03-08T03:40:10;26.90;;;19.40;;
18576;SDS011;9418;52.694;13.294;2024-03-08T03:42:37;27.63;;;20.83;;
18576;SDS011;9418;52.694;13.294;2024-03-08T03:45:05;26.00;;;19.00;;
18576;SDS011;9418;52.694;13.294;2024-03-08T03:47:33;29.87;;;19.87;;
18576;SDS011;9418;52.694;13.294;2024-03-08T03:50:00;24.43;;;18.70;;
18576;SDS011;9418;52.694;13.294;2024-03-08T03:52:28;23.93;;;19.07;;
18576;SDS011;9418;52.694;13.294;2024-03-08T03:54:54;26.97;;;20.30;;
18576;SDS011;9418;52.694;13.294;2024-03-08T03:57:21;28.67;;;19.77;;
18576;SDS011;9418;52.694;13.294;2024-03-08T03:59:48;28.53;;;21.50;;
18576;SDS011;9418;52.694;13.294;2024-03-08T04:02:16;30.50;;;21.93;;
18576;SDS011;9418;52.694;13.294;2024-03-08T04:04:44;30.70;;;21.10;;
18576;SDS011;9418;52.694;13.294;2024-03-08T04:07:11;27.43;;;20.00;;
18576;SDS011;9418;52.694;13.294;2024-03-08T04:09:38;27.47;;;19.70;;
18576;SDS011;9418;52.694;13.294;2024-03-08T04:12:04;27.97;;;20.27;;
18576;SDS011;9418;52.694;13.294;2024-03-08T04:14:32;31.93;;;20.13;;
18576;SDS011;9418;52.694;13.294;2024-03-08T04:16:59;27.67;;;19.50;;
18576;SDS011;9418;52.694;13.294;2024-03-08T04:19:26;28.80;;;20.93;;
18576;SDS011;9418;52.694;13.294;2024-03-08T04:21:54;30.50;;;19.40;;
18576;SDS011;9418;52.694;13.294;2024-03-08T04:24:21;28.03;;;20.53;;
18576;SDS011;9418;52.694;13.294;2024-03-08T04:26:47;28.20;;;20.50;;
18576;SDS011;9418;52.694;13.294;2024-03-08T04:29:14;28.60;;;20.43;;
18576;SDS011;9418;52.694;13.294;2024-03-08T04:31:42;29.43;;;20.90;;
18576;SDS011;9418;52.694;13.294;2024-03-08T04:34:09;26.07;;;20.50;;
18576;SDS011;9418;52.694;13.294;2024-03-08T04:36:36;24.77;;;19.50;;
18576;SDS011;9418;52.694;13.294;2024-03-08T04:39:04;29.73;;;21.27;;
18576;SDS011;9418;52.694;13.294;2024-03-08T04:41:30;29.40;;;20.00;;
18576;SDS011;9418;52.694;13.294;2024-03-08T04:43:59;31.30;;;20.87;;
18576;SDS011;9418;52.694;13.294;2024-03-08T04:46:25;30.00;;;21.03;;
18576;SDS011;9418;52.694;13.294;2024-03-08T04:48:53;27.47;;;20.63;;
18576;SDS011;9418;52.694;13.294;2024-03-08T04:51:20;26.80;;;19.97;;
18576;SDS011;9418;52.694;13.294;2024-03-08T04:53:46;31.77;;;21.70;;
18576;SDS011;9418;52.694;13.294;2024-03-08T04:56:14;27.33;;;20.87;;
18576;SDS011;9418;52.694;13.294;2024-03-08T04:58:41;28.07;;;20.40;;
18576;SDS011;9418;52.694;13.294;2024-03-08T05:01:08;26.87;;;20.90;;
18576;SDS011;9418;52.694;13.294;2024-03-08T05:03:35;27.43;;;19.70;;
18576;SDS011;9418;52.694;13.294;2024-03-08T05:06:03;28.40;;;20.67;;
18576;SDS011;9418;52.694;13.294;2024-03-08T05:08:30;33.60;;;21.20;;
18576;SDS011;9418;52.694;13.294;2024-03-08T05:10:58;26.80;;;20.60;;
18576;SDS011;9418;52.694;13.294;2024-03-08T05:13:29;26.00;;;20.00;;
18576;SDS011;9418;52.694;13.294;2024-03-08T05:15:56;24.67;;;19.13;;
18576;SDS011;9418;52.694;13.294;2024-03-08T05:18:23;27.20;;;19.53;;
18576;SDS011;9418;52.694;13.294;2024-03-08T05:20:50;32.07;;;21.33;;
18576;SDS011;9418;52.694;13.294;2024-03-08T05:23:17;27.30;;;20.60;;
18576;SDS011;9418;52.694;13.294;2024-03-08T05:25:45;29.50;;;19.80;;
18576;SDS011;9418;52.694;13.294;2024-03-08T05:28:12;26.90;;;21.03;;
18576;SDS011;9418;52.694;13.294;2024-03-08T05:30:40;27.40;;;20.63;;
18576;SDS011;9418;52.694;13.294;2024-03-08T05:33:06;30.10;;;22.20;;
18576;SDS011;9418;52.694;13.294;2024-03-08T05:35:35;28.77;;;21.77;;
18576;SDS011;9418;52.694;13.294;2024-03-08T05:38:01;26.63;;;20.50;;
18576;SDS011;9418;52.694;13.294;2024-03-08T05:40:28;29.40;;;21.90;;
18576;SDS011;9418;52.694;13.294;2024-03-08T05:42:56;34.37;;;20.90;;
18576;SDS011;9418;52.694;13.294;2024-03-08T05:45:23;26.03;;;20.83;;
18576;SDS011;9418;52.694;13.294;2024-03-08T05:47:51;33.40;;;22.63;;
18576;SDS011;9418;52.694;13.294;2024-03-08T05:50:18;34.97;;;21.90;;
18576;SDS011;9418;52.694;13.294;2024-03-08T05:52:45;26.50;;;20.70;;
18576;SDS011;9418;52.694;13.294;2024-03-08T05:55:13;26.40;;;20.60;;
18576;SDS011;9418;52.694;13.294;2024-03-08T05:57:40;27.47;;;20.03;;
18576;SDS011;9418;52.694;13.294;2024-03-08T06:00:07;33.90;;;21.93;;
18576;SDS011;9418;52.694;13.294;2024-03-08T06:02:35;27.57;;;20.67;;
18576;SDS011;9418;52.694;13.294;2024-03-08T06:05:07;31.43;;;21.47;;
18576;SDS011;9418;52.694;13.294;2024-03-08T06:07:34;30.80;;;21.70;;
18576;SDS011;9418;52.694;13.294;2024-03-08T06:10:01;28.40;;;22.00;;
18576;SDS011;9418;52.694;13.294;2024-03-08T06:12:28;31.07;;;21.90;;
18576;SDS011;9418;52.694;13.294;2024-03-08T06:14:58;26.57;;;20.30;;
18576;SDS011;9418;52.694;13.294;2024-03-08T06:17:25;29.37;;;21.90;;
18576;SDS011;9418;52.694;13.294;2024-03-08T06:19:52;29.80;;;21.67;;
18576;SDS011;9418;52.694;13.294;2024-03-08T06:22:20;29.57;;;21.43;;
18576;SDS011;9418;52.694;13.294;2024-03-08T06:24:47;28.37;;;21.87;;
18576;SDS011;9418;52.694;13.294;2024-03-08T06:27:13;31.50;;;21.70;;
18576;SDS011;9418;52.694;13.294;2024-03-08T06:29:40;36.40;;;22.47;;
18576;SDS011;9418;52.694;13.294;2024-03-08T06:32:07;30.10;;;21.93;;
18576;SDS011;9418;52.694;13.294;2024-03-08T06:34:33;29.73;;;21.60;;
18576;SDS011;9418;52.694;13.294;2024-03-08T06:37:00;30.87;;;21.77;;
18576;SDS011;9418;52.694;13.294;2024-03-08T06:39:28;32.30;;;22.17;;
18576;SDS011;9418;52.694;13.294;2024-03-08T06:41:56;29.10;;;22.27;;
18576;SDS011;9418;52.694;13.294;2024-03-08T06:44:23;29.20;;;21.03;;
18576;SDS011;9418;52.694;13.294;2024-03-08T06:46:50;29.60;;;22.23;;
18576;SDS011;9418;52.694;13.294;2024-03-08T06:49:17;29.67;;;22.60;;
18576;SDS011;9418;52.694;13.294;2024-03-08T06:51:44;30.93;;;22.87;;
18576;SDS011;9418;52.694;13.294;2024-03-08T06:54:11;33.37;;;21.77;;
18576;SDS011;9418;52.694;13.294;2024-03-08T06:56:39;30.47;;;21.70;;
18576;SDS011;9418;52.694;13.294;2024-03-08T06:59:05;29.17;;;21.67;;
18576;SDS011;9418;52.694;13.294;2024-03-08T07:01:36;31.73;;;22.17;;
18576;SDS011;9418;52.694;13.294;2024-03-08T07:04:03;34.70;;;21.93;;
18576;SDS011;9418;52.694;13.294;2024-03-08T07:06:31;34.10;;;23.17;;
18576;SDS011;9418;52.694;13.294;2024-03-08T07:08:59;32.93;;;23.23;;
18576;SDS011;9418;52.694;13.294;2024-03-08T07:11:26;28.67;;;21.80;;
18576;SDS011;9418;52.694;13.294;2024-03-08T07:13:54;28.40;;;22.00;;
18576;SDS011;9418;52.694;13.294;2024-03-08T07:16:21;29.80;;;21.13;;
18576;SDS011;9418;52.694;13.294;2024-03-08T07:18:48;34.00;;;21.33;;
18576;SDS011;9418;52.694;13.294;2024-03-08T07:21:17;31.03;;;22.03;;
18576;SDS011;9418;52.694;13.294;2024-03-08T07:23:44;32.17;;;23.13;;
18576;SDS011;9418;52.694;13.294;2024-03-08T07:26:29;32.27;;;23.10;;
18576;SDS011;9418;52.694;13.294;2024-03-08T07:28:57;31.63;;;22.77;;
18576;SDS011;9418;52.694;13.294;2024-03-08T07:31:25;30.40;;;23.07;;
18576;SDS011;9418;52.694;13.294;2024-03-08T07:34:03;39.47;;;23.20;;
18576;SDS011;9418;52.694;13.294;2024-03-08T07:36:30;32.10;;;21.23;;
18576;SDS011;9418;52.694;13.294;2024-03-08T07:38:57;35.67;;;22.30;;
18576;SDS011;9418;52.694;13.294;2024-03-08T07:41:23;33.13;;;23.63;;
18576;SDS011;9418;52.694;13.294;2024-03-08T07:43:50;43.67;;;23.90;;
18576;SDS011;9418;52.694;13.294;2024-03-08T07:46:18;38.40;;;24.47;;
18576;SDS011;9418;52.694;13.294;2024-03-08T07:48:45;32.03;;;22.40;;
18576;SDS011;9418;52.694;13.294;2024-03-08T07:51:15;31.10;;;22.80;;
18576;SDS011;9418;52.694;13.294;2024-03-08T07:53:42;32.43;;;23.20;;
18576;SDS011;9418;52.694;13.294;2024-03-08T07:56:10;44.30;;;24.43;;
18576;SDS011;9418;52.694;13.294;2024-03-08T07:58:38;31.40;;;21.93;;
18576;SDS011;9418;52.694;13.294;2024-03-08T08:01:05;36.63;;;24.53;;
18576;SDS011;9418;52.694;13.294;2024-03-08T08:03:34;34.63;;;21.80;;
18576;SDS011;9418;52.694;13.294;2024-03-08T08:06:03;27.23;;;20.33;;
18576;SDS011;9418;52.694;13.294;2024-03-08T08:08:30;29.57;;;21.90;;
18576;SDS011;9418;52.694;13.294;2024-03-08T08:10:57;32.73;;;23.07;;
18576;SDS011;9418;52.694;13.294;2024-03-08T08:13:24;33.90;;;21.83;;
18576;SDS011;9418;52.694;13.294;2024-03-08T08:15:52;31.67;;;22.83;;
18576;SDS011;9418;52.694;13.294;2024-03-08T08:18:19;32.10;;;21.90;;
18576;SDS011;9418;52.694;13.294;2024-03-08T08:20:51;27.97;;;20.23;;
18576;SDS011;9418;52.694;13.294;2024-03-08T08:23:18;27.17;;;20.00;;
18576;SDS011;9418;52.694;13.294;2024-03-08T08:25:45;30.47;;;20.20;;
18576;SDS011;9418;52.694;13.294;2024-03-08T08:28:13;28.33;;;19.63;;
18576;SDS011;9418;52.694;13.294;2024-03-08T08:30:41;25.60;;;18.23;;
18576;SDS011;9418;52.694;13.294;2024-03-08T08:33:08;28.17;;;19.47;;
18576;SDS011;9418;52.694;13.294;2024-03-08T08:35:35;28.37;;;20.30;;
18576;SDS011;9418;52.694;13.294;2024-03-08T08:38:03;24.13;;;18.30;;
18576;SDS011;9418;52.694;13.294;2024-03-08T08:40:30;25.57;;;19.80;;
18576;SDS011;9418;52.694;13.294;2024-03-08T08:42:57;25.70;;;18.57;;
18576;SDS011;9418;52.694;13.294;2024-03-08T08:45:23;27.97;;;18.63;;
18576;SDS011;9418;52.694;13.294;2024-03-08T08:47:50;24.63;;;18.43;;
18576;SDS011;9418;52.694;13.294;2024-03-08T08:50:16;24.57;;;18.40;;
18576;SDS011;9418;52.694;13.294;2024-03-08T08:52:48;28.33;;;19.60;;
18576;SDS011;9418;52.694;13.294;2024-03-08T08:55:16;29.43;;;19.40;;
18576;SDS011;9418;52.694;13.294;2024-03-08T08:57:45;31.00;;;20.60;;
18576;SDS011;9418;52.694;13.294;2024-03-08T09:00:12;26.37;;;18.60;;
18576;SDS011;9418;52.694;13.294;2024-03-08T09:02:40;29.63;;;19.53;;
18576;SDS011;9418;52.694;13.294;2024-03-08T09:05:07;28.23;;;22.67;;
18576;SDS011;9418;52.694;13.294;2024-03-08T09:07:34;26.50;;;19.33;;
18576;SDS011;9418;52.694;13.294;2024-03-08T09:10:01;25.50;;;19.40;;
18576;SDS011;9418;52.694;13.294;2024-03-08T09:12:29;29.70;;;20.90;;
18576;SDS011;9418;52.694;13.294;2024-03-08T09:14:57;26.90;;;19.87;;
18576;SDS011;9418;52.694;13.294;2024-03-08T09:17:24;28.87;;;19.77;;
18576;SDS011;9418;52.694;13.294;2024-03-08T09:19:51;26.97;;;19.33;;
18576;SDS011;9418;52.694;13.294;2024-03-08T09:22:19;26.00;;;18.97;;
18576;SDS011;9418;52.694;13.294;2024-03-08T09:24:46;25.70;;;20.57;;
18576;SDS011;9418;52.694;13.294;2024-03-08T09:27:12;26.83;;;20.10;;
18576;SDS011;9418;52.694;13.294;2024-03-08T09:29:40;27.77;;;21.50;;
18576;SDS011;9418;52.694;13.294;2024-03-08T09:32:07;30.43;;;22.03;;
18576;SDS011;9418;52.694;13.294;2024-03-08T09:34:33;30.67;;;21.00;;
18576;SDS011;9418;52.694;13.294;2024-03-08T09:37:00;29.00;;;21.70;;
18576;SDS011;9418;52.694;13.294;2024-03-08T09:39:29;26.27;;;20.03;;
18576;SDS011;9418;52.694;13.294;2024-03-08T09:41:56;27.00;;;19.30;;
18576;SDS011;9418;52.694;13.294;2024-03-08T09:44:22;33.17;;;21.67;;
18576;SDS011;9418;52.694;13.294;2024-03-08T09:46:51;28.23;;;22.47;;
18576;SDS011;9418;52.694;13.294;2024-03-08T09:49:18;27.23;;;20.67;;
18576;SDS011;9418;52.694;13.294;2024-03-08T09:51:45;29.70;;;20.27;;
18576;SDS011;9418;52.694;13.294;2024-03-08T09:54:12;29.20;;;20.50;;
18576;SDS011;9418;52.694;13.294;2024-03-08T09:56:39;30.10;;;20.60;;
18576;SDS011;9418;52.694;13.294;2024-03-08T09:59:09;27.60;;;21.03;;
18576;SDS011;9418;52.694;13.294;2024-03-08T10:02:12;31.87;;;20.13;;
18576;SDS011;9418;52.694;13.294;2024-03-08T10:04:40;27.10;;;20.93;;
18576;SDS011;9418;52.694;13.294;2024-03-08T10:07:08;30.30;;;21.40;;
18576;SDS011;9418;52.694;13.294;2024-03-08T10:09:34;29.73;;;22.03;;
18576;SDS011;9418;52.694;13.294;2024-03-08T10:12:01;29.67;;;21.17;;
18576;SDS011;9418;52.694;13.294;2024-03-08T10:14:28;29.23;;;22.03;;
18576;SDS011;9418;52.694;13.294;2024-03-08T10:16:56;27.70;;;21.67;;
18576;SDS011;9418;52.694;13.294;2024-03-08T10:19:26;28.63;;;21.57;;
18576;SDS011;9418;52.694;13.294;2024-03-08T10:21:55;31.80;;;21.80;;
18576;SDS011;9418;52.694;13.294;2024-03-08T10:24:23;30.40;;;23.10;;
18576;SDS011;9418;52.694;13.294;2024-03-08T10:26:51;29.73;;;22.50;;
18576;SDS011;9418;52.694;13.294;2024-03-08T10:29:19;27.87;;;22.17;;
18576;SDS011;9418;52.694;13.294;2024-03-08T10:31:45;33.00;;;24.20;;
18576;SDS011;9418;52.694;13.294;2024-03-08T10:34:12;30.50;;;21.27;;
18576;SDS011;9418;52.694;13.294;2024-03-08T10:36:40;28.13;;;21.53;;
18576;SDS011;9418;52.694;13.294;2024-03-08T10:39:12;25.07;;;21.10;;
18576;SDS011;9418;52.694;13.294;2024-03-08T10:41:47;24.93;;;19.60;;
18576;SDS011;9418;52.694;13.294;2024-03-08T10:44:21;30.57;;;22.10;;
18576;SDS011;9418;52.694;13.294;2024-03-08T10:47:03;30.03;;;19.40;;
18576;SDS011;9418;52.694;13.294;2024-03-08T10:49:43;25.10;;;18.50;;
18576;SDS011;9418;52.694;13.294;2024-03-08T10:52:21;25.37;;;18.10;;
18576;SDS011;9418;52.694;13.294;2024-03-08T10:54:48;25.20;;;20.10;;
18576;SDS011;9418;52.694;13.294;2024-03-08T10:57:17;29.07;;;20.20;;
18576;SDS011;9418;52.694;13.294;2024-03-08T10:59:46;26.67;;;19.03;;
18576;SDS011;9418;52.694;13.294;2024-03-08T11:02:15;22.37;;;18.50;;
18576;SDS011;9418;52.694;13.294;2024-03-08T11:04:45;25.30;;;18.33;;
18576;SDS011;9418;52.694;13.294;2024-03-08T11:07:12;24.30;;;18.10;;
18576;SDS011;9418;52.694;13.294;2024-03-08T11:09:43;31.80;;;18.90;;
18576;SDS011;9418;52.694;13.294;2024-03-08T11:12:23;24.73;;;17.80;;
18576;SDS011;9418;52.694;13.294;2024-03-08T11:14:51;24.10;;;17.50;;
18576;SDS011;9418;52.694;13.294;2024-03-08T11:17:25;23.60;;;19.00;;
18576;SDS011;9418;52.694;13.294;2024-03-08T11:20:08;36.47;;;18.70;;
18576;SDS011;9418;52.694;13.294;2024-03-08T11:22:40;24.70;;;20.30;;
18576;SDS011;9418;52.694;13.294;2024-03-08T11:25:29;24.17;;;19.00;;
18576;SDS011;9418;52.694;13.294;2024-03-08T11:28:06;24.70;;;18.50;;
18576;SDS011;9418;52.694;13.294;2024-03-08T11:30:41;25.03;;;18.77;;
18576;SDS011;9418;52.694;13.294;2024-03-08T11:33:10;23.30;;;18.13;;
18576;SDS011;9418;52.694;13.294;2024-03-08T11:35:38;24.63;;;19.07;;
18576;SDS011;9418;52.694;13.294;2024-03-08T11:38:05;21.77;;;17.17;;
18576;SDS011;9418;52.694;13.294;2024-03-08T11:40:35;22.00;;;18.60;;
18576;SDS011;9418;52.694;13.294;2024-03-08T11:43:02;20.20;;;16.70;;
18576;SDS011;9418;52.694;13.294;2024-03-08T11:45:32;23.23;;;17.80;;
18576;SDS011;9418;52.694;13.294;2024-03-08T11:48:01;36.57;;;17.57;;
18576;SDS011;9418;52.694;13.294;2024-03-08T11:50:28;22.90;;;17.33;;
18576;SDS011;9418;52.694;13.294;2024-03-08T11:52:59;24.90;;;16.73;;
18576;SDS011;9418;52.694;13.294;2024-03-08T11:55:26;21.13;;;15.33;;
18576;SDS011;9418;52.694;13.294;2024-03-08T11:58:00;21.30;;;17.07;;
18576;SDS011;9418;52.694;13.294;2024-03-08T12:00:33;21.63;;;16.20;;
18576;SDS011;9418;52.694;13.294;2024-03-08T12:03:03;31.90;;;17.23;;
18576;SDS011;9418;52.694;13.294;2024-03-08T12:05:31;18.23;;;16.20;;
18576;SDS011;9418;52.694;13.294;2024-03-08T12:07:58;22.93;;;17.63;;
18576;SDS011;9418;52.694;13.294;2024-03-08T12:10:25;18.37;;;15.30;;
18576;SDS011;9418;52.694;13.294;2024-03-08T12:12:53;21.70;;;17.10;;
18576;SDS011;9418;52.694;13.294;2024-03-08T12:15:22;24.83;;;17.40;;
18576;SDS011;9418;52.694;13.294;2024-03-08T12:17:51;22.33;;;16.53;;
18576;SDS011;9418;52.694;13.294;2024-03-08T12:20:20;25.20;;;17.23;;
18576;SDS011;9418;52.694;13.294;2024-03-08T12:22:48;21.90;;;16.90;;
18576;SDS011;9418;52.694;13.294;2024-03-08T12:25:17;21.60;;;16.90;;
18576;SDS011;9418;52.694;13.294;2024-03-08T12:27:43;25.20;;;16.60;;
18576;SDS011;9418;52.694;13.294;2024-03-08T12:30:17;22.70;;;16.83;;
18576;SDS011;9418;52.694;13.294;2024-03-08T12:32:50;17.50;;;14.43;;
18576;SDS011;9418;52.694;13.294;2024-03-08T12:35:19;21.77;;;16.90;;
18576;SDS011;9418;52.694;13.294;2024-03-08T12:37:47;23.00;;;17.10;;
18576;SDS011;9418;52.694;13.294;2024-03-08T12:40:16;24.03;;;16.43;;
18576;SDS011;9418;52.694;13.294;2024-03-08T12:42:43;20.83;;;16.27;;
18576;SDS011;9418;52.694;13.294;2024-03-08T12:45:12;25.20;;;18.63;;
18576;SDS011;9418;52.694;13.294;2024-03-08T12:47:39;27.43;;;16.73;;
18576;SDS011;9418;52.694;13.294;2024-03-08T12:50:08;22.30;;;16.77;;
18576;SDS011;9418;52.694;13.294;2024-03-08T12:52:36;19.13;;;14.83;;
18576;SDS011;9418;52.694;13.294;2024-03-08T12:55:03;18.70;;;15.70;;
18576;SDS011;9418;52.694;13.294;2024-03-08T12:57:32;23.20;;;16.40;;
18576;SDS011;9418;52.694;13.294;2024-03-08T12:59:59;22.73;;;16.57;;
18576;SDS011;9418;52.694;13.294;2024-03-08T13:02:27;22.13;;;17.57;;
18576;SDS011;9418;52.694;13.294;2024-03-08T13:04:53;23.03;;;16.77;;
18576;SDS011;9418;52.694;13.294;2024-03-08T13:07:24;21.63;;;17.60;;
18576;SDS011;9418;52.694;13.294;2024-03-08T13:09:51;23.63;;;17.60;;
18576;SDS011;9418;52.694;13.294;2024-03-08T13:12:18;24.30;;;16.70;;
18576;SDS011;9418;52.694;13.294;2024-03-08T13:14:46;26.77;;;17.30;;
18576;SDS011;9418;52.694;13.294;2024-03-08T13:17:12;20.87;;;16.93;;
18576;SDS011;9418;52.694;13.294;2024-03-08T13:19:39;22.83;;;15.87;;
18576;SDS011;9418;52.694;13.294;2024-03-08T13:22:07;19.60;;;15.40;;
18576;SDS011;9418;52.694;13.294;2024-03-08T13:24:38;22.43;;;16.80;;
18576;SDS011;9418;52.694;13.294;2024-03-08T13:27:06;20.93;;;15.47;;
18576;SDS011;9418;52.694;13.294;2024-03-08T13:29:44;21.77;;;14.77;;
18576;SDS011;9418;52.694;13.294;2024-03-08T13:32:11;23.97;;;16.60;;
18576;SDS011;9418;52.694;13.294;2024-03-08T13:34:40;19.47;;;16.17;;
18576;SDS011;9418;52.694;13.294;2024-03-08T13:37:07;20.70;;;15.93;;
18576;SDS011;9418;52.694;13.294;2024-03-08T13:39:34;20.73;;;15.90;;
18576;SDS011;9418;52.694;13.294;2024-03-08T13:42:07;20.50;;;16.43;;
18576;SDS011;9418;52.694;13.294;2024-03-08T13:44:34;21.83;;;16.40;;
18576;SDS011;9418;52.694;13.294;2024-03-08T13:47:01;28.27;;;17.77;;
18576;SDS011;9418;52.694;13.294;2024-03-08T13:49:29;21.57;;;17.00;;
18576;SDS011;9418;52.694;13.294;2024-03-08T13:51:56;27.50;;;16.40;;
18576;SDS011;9418;52.694;13.294;2024-03-08T13:54:23;23.23;;;17.43;;
18576;SDS011;9418;52.694;13.294;2024-03-08T13:56:51;21.63;;;17.30;;
18576;SDS011;9418;52.694;13.294;2024-03-08T13:59:20;23.47;;;16.73;;
18576;SDS011;9418;52.694;13.294;2024-03-08T14:01:48;20.90;;;17.10;;
18576;SDS011;9418;52.694;13.294;2024-03-08T14:04:15;21.87;;;16.87;;
18576;SDS011;9418;52.694;13.294;2024-03-08T14:06:42;22.27;;;16.33;;
18576;SDS011;9418;52.694;13.294;2024-03-08T14:09:09;19.80;;;16.27;;
18576;SDS011;9418;52.694;13.294;2024-03-08T14:11:41;19.47;;;15.40;;
18576;SDS011;9418;52.694;13.294;2024-03-08T14:14:09;22.03;;;16.40;;
18576;SDS011;9418;52.694;13.294;2024-03-08T14:16:38;23.10;;;17.50;;
18576;SDS011;9418;52.694;13.294;2024-03-08T14:19:05;23.47;;;17.03;;
18576;SDS011;9418;52.694;13.294;2024-03-08T14:21:32;25.87;;;19.00;;
18576;SDS011;9418;52.694;13.294;2024-03-08T14:23:59;26.73;;;19.30;;
18576;SDS011;9418;52.694;13.294;2024-03-08T14:26:26;25.60;;;18.03;;